createdAt,value
2018-08-27T00:00:39.051Z,1003.53
2018-08-27T00:02:00.068Z,1003.45
2018-08-27T00:02:39.051Z,1003.44
2018-08-27T00:03:39.023Z,1003.46
2018-08-27T00:04:39.033Z,1003.38
2018-08-27T00:05:39.029Z,1003.23
2018-08-27T00:06:39.044Z,1003.24
2018-08-27T00:07:59.912Z,1003.25
2018-08-27T00:08:39.008Z,1003.39
2018-08-27T00:09:39.018Z,1003.19
2018-08-27T00:10:38.999Z,1003.11
2018-08-27T00:11:38.963Z,1003.21
2018-08-27T00:12:38.963Z,1003.17
2018-08-27T00:13:59.955Z,1003.33
2018-08-27T00:14:38.941Z,1003.23
2018-08-27T00:15:38.934Z,1003.20
2018-08-27T00:16:38.972Z,1003.05
2018-08-27T00:17:38.952Z,1003.13
2018-08-27T00:18:38.928Z,1003.02
2018-08-27T00:19:59.944Z,1003.03
2018-08-27T00:20:38.905Z,1003.06
2018-08-27T00:21:38.969Z,1002.99
2018-08-27T00:22:38.947Z,1003.00
2018-08-27T00:23:38.914Z,1002.93
2018-08-27T00:24:38.914Z,1003.04
2018-08-27T00:25:59.924Z,1003.00
2018-08-27T00:26:38.871Z,1003.02
2018-08-27T00:27:38.802Z,1002.95
2018-08-27T00:28:38.893Z,1002.89
2018-08-27T00:29:38.867Z,1002.96
2018-08-27T00:30:38.849Z,1002.93
2018-08-27T00:31:59.867Z,1002.95
2018-08-27T00:32:38.840Z,1002.96
2018-08-27T00:33:38.831Z,1002.94
2018-08-27T00:34:38.807Z,1002.93
2018-08-27T00:35:38.851Z,1002.88
2018-08-27T00:36:38.823Z,1002.88
2018-08-27T00:37:59.837Z,1002.88
2018-08-27T00:38:38.829Z,1002.82
2018-08-27T00:39:38.818Z,1002.85
2018-08-27T00:40:38.821Z,1002.84
2018-08-27T00:41:38.788Z,1003.12
2018-08-27T00:42:38.801Z,1002.79
2018-08-27T00:43:59.809Z,1002.76
2018-08-27T00:44:38.799Z,1002.70
2018-08-27T00:45:38.794Z,1002.72
2018-08-27T00:46:38.786Z,1002.74
2018-08-27T00:47:38.737Z,1002.67
2018-08-27T00:48:57.094Z,1002.67
2018-08-27T00:49:59.740Z,1002.67
2018-08-27T00:50:38.723Z,1002.64
2018-08-27T00:51:38.720Z,1002.69
2018-08-27T00:52:38.744Z,1002.65
2018-08-27T00:53:38.703Z,1002.59
2018-08-27T00:54:38.706Z,1002.53
2018-08-27T00:55:59.737Z,1002.52
2018-08-27T00:56:38.699Z,1002.51
2018-08-27T00:57:38.707Z,1002.53
2018-08-27T00:58:38.682Z,1002.46
2018-08-27T00:59:38.681Z,1002.43
2018-08-27T01:00:38.672Z,1002.36
2018-08-27T01:01:59.688Z,1002.34
2018-08-27T01:02:38.665Z,1002.43
2018-08-27T01:03:38.629Z,1002.36
2018-08-27T01:04:38.636Z,1002.32
2018-08-27T01:05:38.648Z,1002.49
2018-08-27T01:06:38.632Z,1002.41
2018-08-27T01:07:59.663Z,1002.37
2018-08-27T01:08:38.641Z,1002.36
2018-08-27T01:09:38.647Z,1002.41
2018-08-27T01:10:38.620Z,1002.45
2018-08-27T01:11:38.596Z,1002.39
2018-08-27T01:12:38.608Z,1002.38
2018-08-27T01:13:59.587Z,1002.48
2018-08-27T01:14:38.591Z,1002.31
2018-08-27T01:15:38.559Z,1002.41
2018-08-27T01:16:38.565Z,1002.38
2018-08-27T01:17:38.546Z,1002.38
2018-08-27T01:18:38.571Z,1002.45
2018-08-27T01:19:59.574Z,1002.35
2018-08-27T01:20:38.546Z,1002.24
2018-08-27T01:21:38.554Z,1002.37
2018-08-27T01:22:38.615Z,1002.19
2018-08-27T01:23:38.494Z,1002.19
2018-08-27T01:24:38.524Z,1002.16
2018-08-27T01:25:59.477Z,1002.18
2018-08-27T01:26:38.514Z,1002.17
2018-08-27T01:27:38.500Z,1002.23
2018-08-27T01:28:38.460Z,1002.43
2018-08-27T01:29:38.490Z,1002.07
2018-08-27T01:30:38.492Z,1002.15
2018-08-27T01:31:59.482Z,1002.19
2018-08-27T01:32:38.394Z,1002.20
2018-08-27T01:33:38.466Z,1002.13
2018-08-27T01:34:38.485Z,1002.18
2018-08-27T01:35:38.460Z,1002.28
2018-08-27T01:36:38.436Z,1002.13
2018-08-27T01:37:59.436Z,1002.18
2018-08-27T01:38:38.435Z,1002.15
2018-08-27T01:39:39.002Z,1002.10
2018-08-27T01:40:38.419Z,1002.14
2018-08-27T01:41:38.434Z,1002.06
2018-08-27T01:42:38.420Z,1002.10
2018-08-27T01:43:59.430Z,1002.27
2018-08-27T01:44:38.406Z,1002.12
2018-08-27T01:45:38.393Z,1002.18
2018-08-27T01:46:38.362Z,1002.10
2018-08-27T01:47:38.396Z,1002.09
2018-08-27T01:48:38.376Z,1002.05
2018-08-27T01:49:59.397Z,1002.00
2018-08-27T01:50:38.377Z,1002.04
2018-08-27T01:51:38.367Z,1002.00
2018-08-27T01:52:38.358Z,1001.93
2018-08-27T01:53:38.299Z,1001.99
2018-08-27T01:54:38.356Z,1001.97
2018-08-27T01:55:59.357Z,1002.02
2018-08-27T01:56:38.340Z,1001.89
2018-08-27T01:57:38.335Z,1001.92
2018-08-27T01:58:38.330Z,1001.88
2018-08-27T01:59:38.340Z,1001.92
2018-08-27T02:00:38.299Z,1001.88
2018-08-27T02:01:59.233Z,1001.86
2018-08-27T02:02:38.329Z,1001.89
2018-08-27T02:03:38.303Z,1001.88
2018-08-27T02:04:38.301Z,1001.81
2018-08-27T02:05:38.273Z,1001.84
2018-08-27T02:06:38.275Z,1001.76
2018-08-27T02:07:59.275Z,1001.75
2018-08-27T02:08:38.235Z,1001.79
2018-08-27T02:09:38.252Z,1001.78
2018-08-27T02:10:38.261Z,1001.91
2018-08-27T02:11:38.257Z,1001.65
2018-08-27T02:12:38.243Z,1001.88
2018-08-27T02:13:59.233Z,1001.79
2018-08-27T02:14:38.251Z,1001.63
2018-08-27T02:15:38.238Z,1001.76
2018-08-27T02:16:38.915Z,1001.69
2018-08-27T02:17:38.223Z,1001.71
2018-08-27T02:18:38.197Z,1001.66
2018-08-27T02:19:59.209Z,1001.65
2018-08-27T02:20:38.207Z,1001.80
2018-08-27T02:21:38.218Z,1001.72
2018-08-27T02:22:38.117Z,1001.62
2018-08-27T02:23:38.189Z,1001.63
2018-08-27T02:24:38.180Z,1001.68
2018-08-27T02:25:59.182Z,1001.61
2018-08-27T02:26:38.171Z,1001.67
2018-08-27T02:27:38.154Z,1001.56
2018-08-27T02:28:38.140Z,1001.57
2018-08-27T02:29:38.090Z,1001.62
2018-08-27T02:30:38.081Z,1001.70
2018-08-27T02:31:59.163Z,1001.80
2018-08-27T02:32:38.096Z,1001.53
2018-08-27T02:33:38.116Z,1001.47
2018-08-27T02:34:38.103Z,1001.61
2018-08-27T02:35:38.111Z,1001.61
2018-08-27T02:36:38.110Z,1001.61
2018-08-27T02:37:59.113Z,1001.63
2018-08-27T02:38:38.055Z,1001.62
2018-08-27T02:39:38.107Z,1001.61
2018-08-27T02:40:38.074Z,1001.51
2018-08-27T02:41:38.095Z,1001.47
2018-08-27T02:42:38.069Z,1001.55
2018-08-27T02:43:59.073Z,1001.51
2018-08-27T02:44:38.031Z,1001.54
2018-08-27T02:45:38.046Z,1001.44
2018-08-27T02:46:38.044Z,1001.61
2018-08-27T02:47:38.062Z,1001.59
2018-08-27T02:48:38.030Z,1001.48
2018-08-27T02:49:59.023Z,1001.52
2018-08-27T02:50:38.014Z,1001.40
2018-08-27T02:51:37.968Z,1001.45
2018-08-27T02:52:37.996Z,1001.45
2018-08-27T02:53:38.026Z,1001.30
2018-08-27T02:54:38.003Z,1001.48
2018-08-27T02:55:59.002Z,1001.41
2018-08-27T02:56:37.990Z,1001.45
2018-08-27T02:57:37.975Z,1001.46
2018-08-27T02:58:37.958Z,1001.37
2018-08-27T02:59:37.939Z,1001.39
2018-08-27T03:00:37.884Z,1001.40
2018-08-27T03:01:58.948Z,1001.39
2018-08-27T03:02:37.966Z,1001.33
2018-08-27T03:03:37.954Z,1001.48
2018-08-27T03:04:37.951Z,1001.40
2018-08-27T03:05:37.876Z,1001.35
2018-08-27T03:06:38.931Z,1001.52
2018-08-27T03:07:58.921Z,1001.28
2018-08-27T03:08:37.951Z,1001.36
2018-08-27T03:09:37.899Z,1001.36
2018-08-27T03:10:37.901Z,1001.24
2018-08-27T03:11:37.885Z,1001.32
2018-08-27T03:12:37.886Z,1001.30
2018-08-27T03:13:59.283Z,1001.29
2018-08-27T03:14:38.681Z,1001.29
2018-08-27T03:15:37.911Z,1001.36
2018-08-27T03:16:37.846Z,1001.36
2018-08-27T03:17:37.861Z,1001.35
2018-08-27T03:18:37.830Z,1001.36
2018-08-27T03:19:58.839Z,1001.27
2018-08-27T03:20:37.821Z,1001.28
2018-08-27T03:21:37.834Z,1001.21
2018-08-27T03:22:37.860Z,1001.20
2018-08-27T03:23:37.814Z,1001.16
2018-08-27T03:24:37.806Z,1001.22
2018-08-27T03:25:58.802Z,1001.18
2018-08-27T03:26:37.789Z,1001.13
2018-08-27T03:27:37.807Z,1001.19
2018-08-27T03:28:37.748Z,1001.12
2018-08-27T03:29:37.725Z,1001.18
2018-08-27T03:30:37.797Z,1001.14
2018-08-27T03:31:58.767Z,1001.13
2018-08-27T03:32:37.765Z,1001.16
2018-08-27T03:33:37.740Z,1001.14
2018-08-27T03:34:37.726Z,1001.20
2018-08-27T03:35:37.745Z,1001.27
2018-08-27T03:36:37.751Z,1001.16
2018-08-27T03:37:58.755Z,1001.30
2018-08-27T03:38:37.719Z,1001.18
2018-08-27T03:39:37.727Z,1001.27
2018-08-27T03:40:37.717Z,1001.15
2018-08-27T03:41:37.646Z,1001.16
2018-08-27T03:42:37.696Z,1001.17
2018-08-27T03:43:58.697Z,1001.30
2018-08-27T03:44:37.693Z,1001.21
2018-08-27T03:45:37.686Z,1001.21
2018-08-27T03:46:37.674Z,1001.18
2018-08-27T03:47:37.661Z,1001.30
2018-08-27T03:48:37.713Z,1001.25
2018-08-27T03:49:58.673Z,1001.10
2018-08-27T03:50:37.648Z,1001.19
2018-08-27T03:51:37.654Z,1001.10
2018-08-27T03:52:37.641Z,1001.13
2018-08-27T03:53:37.631Z,1001.07
2018-08-27T03:54:37.621Z,1001.07
2018-08-27T03:55:58.575Z,1001.09
2018-08-27T03:56:37.624Z,1001.14
2018-08-27T03:57:37.603Z,1000.99
2018-08-27T03:58:37.626Z,1001.04
2018-08-27T03:59:37.591Z,1001.07
2018-08-27T04:00:37.594Z,1000.98
2018-08-27T04:01:58.574Z,1001.25
2018-08-27T04:02:37.558Z,1000.99
2018-08-27T04:03:37.576Z,1001.01
2018-08-27T04:04:37.506Z,1001.03
2018-08-27T04:05:37.540Z,1001.16
2018-08-27T04:06:37.550Z,1001.03
2018-08-27T04:07:58.548Z,1001.04
2018-08-27T04:08:37.534Z,1001.05
2018-08-27T04:09:37.525Z,1001.15
2018-08-27T04:10:37.494Z,1001.08
2018-08-27T04:11:37.521Z,1001.13
2018-08-27T04:12:37.519Z,1001.08
2018-08-27T04:13:58.492Z,1001.09
2018-08-27T04:14:37.485Z,1001.10
2018-08-27T04:15:37.507Z,1001.15
2018-08-27T04:16:37.482Z,1001.22
2018-08-27T04:17:37.477Z,1001.08
2018-08-27T04:18:37.452Z,1001.19
2018-08-27T04:19:58.488Z,1001.19
2018-08-27T04:20:37.428Z,1001.19
2018-08-27T04:21:37.466Z,1001.20
2018-08-27T04:22:37.441Z,1001.17
2018-08-27T04:23:37.441Z,1001.18
2018-08-27T04:24:37.394Z,1001.18
2018-08-27T04:25:58.408Z,1001.19
2018-08-27T04:26:37.439Z,1001.15
2018-08-27T04:27:37.408Z,1001.20
2018-08-27T04:28:37.417Z,1001.18
2018-08-27T04:29:37.406Z,1001.09
2018-08-27T04:30:37.406Z,1001.06
2018-08-27T04:31:58.370Z,1001.10
2018-08-27T04:32:37.393Z,1001.13
2018-08-27T04:33:37.379Z,1001.10
2018-08-27T04:34:37.380Z,1001.10
2018-08-27T04:35:37.372Z,1000.96
2018-08-27T04:36:37.372Z,1001.08
2018-08-27T04:37:58.359Z,1000.99
2018-08-27T04:38:37.319Z,1001.03
2018-08-27T04:39:37.361Z,1001.06
2018-08-27T04:40:37.341Z,1001.12
2018-08-27T04:41:37.326Z,1001.06
2018-08-27T04:42:37.358Z,1001.08
2018-08-27T04:43:58.335Z,1001.06
2018-08-27T04:44:37.311Z,1001.10
2018-08-27T04:45:37.303Z,1001.11
2018-08-27T04:46:37.281Z,1001.05
2018-08-27T04:47:37.302Z,1001.06
2018-08-27T04:48:37.348Z,1001.12
2018-08-27T04:49:58.278Z,1001.16
2018-08-27T04:50:37.336Z,1001.21
2018-08-27T04:51:37.266Z,1001.21
2018-08-27T04:52:37.274Z,1001.22
2018-08-27T04:53:37.226Z,1001.19
2018-08-27T04:54:37.223Z,1001.22
2018-08-27T04:55:58.258Z,1001.25
2018-08-27T04:56:37.244Z,1001.35
2018-08-27T04:57:37.239Z,1001.25
2018-08-27T04:58:37.228Z,1001.27
2018-08-27T04:59:37.217Z,1001.29
2018-08-27T05:00:37.230Z,1001.26
2018-08-27T05:01:58.217Z,1001.27
2018-08-27T05:02:37.209Z,1001.29
2018-08-27T05:03:37.179Z,1001.27
2018-08-27T05:04:37.189Z,1001.28
2018-08-27T05:05:37.227Z,1001.36
2018-08-27T05:06:37.153Z,1001.32
2018-08-27T05:07:58.174Z,1001.24
2018-08-27T05:08:37.169Z,1001.34
2018-08-27T05:09:37.155Z,1001.31
2018-08-27T05:10:37.169Z,1001.31
2018-08-27T05:11:37.169Z,1001.40
2018-08-27T05:12:37.183Z,1001.30
2018-08-27T05:13:58.116Z,1001.38
2018-08-27T05:14:37.079Z,1001.40
2018-08-27T05:15:37.125Z,1001.39
2018-08-27T05:16:37.107Z,1001.38
2018-08-27T05:17:37.093Z,1001.39
2018-08-27T05:18:37.110Z,1001.35
2018-08-27T05:19:58.072Z,1001.43
2018-08-27T05:20:37.883Z,1001.47
2018-08-27T05:21:37.007Z,1001.43
2018-08-27T05:22:37.115Z,1001.43
2018-08-27T05:23:37.059Z,1001.40
2018-08-27T05:24:37.059Z,1001.36
2018-08-27T05:25:58.057Z,1001.36
2018-08-27T05:26:37.029Z,1001.39
2018-08-27T05:27:37.048Z,1001.40
2018-08-27T05:28:37.911Z,1001.41
2018-08-27T05:29:37.027Z,1001.37
2018-08-27T05:30:37.033Z,1001.45
2018-08-27T05:31:58.012Z,1001.34
2018-08-27T05:32:37.716Z,1001.42
2018-08-27T05:33:36.970Z,1001.44
2018-08-27T05:34:36.961Z,1001.41
2018-08-27T05:35:36.984Z,1001.50
2018-08-27T05:36:36.977Z,1001.47
2018-08-27T05:37:57.990Z,1001.44
2018-08-27T05:38:36.968Z,1001.48
2018-08-27T05:39:36.963Z,1001.46
2018-08-27T05:40:36.947Z,1001.47
2018-08-27T05:41:36.922Z,1001.51
2018-08-27T05:42:36.920Z,1001.50
2018-08-27T05:43:57.927Z,1001.47
2018-08-27T05:44:37.012Z,1001.55
2018-08-27T05:45:36.909Z,1001.49
2018-08-27T05:46:36.936Z,1001.49
2018-08-27T05:47:36.995Z,1001.47
2018-08-27T05:48:36.915Z,1001.49
2018-08-27T05:49:57.881Z,1001.42
2018-08-27T05:50:36.868Z,1001.47
2018-08-27T05:51:36.934Z,1001.46
2018-08-27T05:52:36.875Z,1001.46
2018-08-27T05:53:36.873Z,1001.46
2018-08-27T05:54:36.980Z,1001.48
2018-08-27T05:55:57.847Z,1001.51
2018-08-27T05:56:36.828Z,1001.54
2018-08-27T05:57:36.845Z,1001.49
2018-08-27T05:58:36.825Z,1001.51
2018-08-27T05:59:36.846Z,1001.55
2018-08-27T06:00:36.827Z,1001.52
2018-08-27T06:01:57.845Z,1001.53
2018-08-27T06:02:36.882Z,1001.55
2018-08-27T06:03:37.374Z,1001.59
2018-08-27T06:04:37.757Z,1001.58
2018-08-27T06:05:37.728Z,1001.63
2018-08-27T06:06:36.817Z,1001.56
2018-08-27T06:07:57.772Z,1001.59
2018-08-27T06:08:36.919Z,1001.58
2018-08-27T06:09:36.761Z,1001.63
2018-08-27T06:10:36.834Z,1001.66
2018-08-27T06:11:36.766Z,1001.62
2018-08-27T06:12:37.235Z,1001.65
2018-08-27T06:13:58.453Z,1001.73
2018-08-27T06:14:38.412Z,1001.70
2018-08-27T06:15:36.995Z,1001.68
2018-08-27T06:16:36.747Z,1001.69
2018-08-27T06:17:36.744Z,1001.69
2018-08-27T06:18:36.992Z,1001.70
2018-08-27T06:19:57.720Z,1001.68
2018-08-27T06:20:36.832Z,1001.70
2018-08-27T06:21:36.706Z,1001.75
2018-08-27T06:22:36.679Z,1001.73
2018-08-27T06:23:36.679Z,1001.76
2018-08-27T06:24:36.667Z,1001.68
2018-08-27T06:25:57.652Z,1001.76
2018-08-27T06:26:36.695Z,1001.72
2018-08-27T06:27:36.641Z,1001.80
2018-08-27T06:28:36.613Z,1001.79
2018-08-27T06:29:36.656Z,1001.76
2018-08-27T06:30:36.637Z,1001.82
2018-08-27T06:31:57.638Z,1001.81
2018-08-27T06:32:36.634Z,1001.80
2018-08-27T06:33:36.608Z,1001.84
2018-08-27T06:34:36.604Z,1001.70
2018-08-27T06:35:36.552Z,1001.88
2018-08-27T06:36:36.588Z,1001.81
2018-08-27T06:37:57.645Z,1001.79
2018-08-27T06:38:36.594Z,1001.83
2018-08-27T06:39:36.566Z,1001.82
2018-08-27T06:40:36.555Z,1001.77
2018-08-27T06:41:36.527Z,1001.77
2018-08-27T06:42:36.490Z,1001.78
2018-08-27T06:43:57.573Z,1001.78
2018-08-27T06:44:37.943Z,1001.81
2018-08-27T06:45:37.363Z,1001.83
2018-08-27T06:46:36.551Z,1001.79
2018-08-27T06:47:36.562Z,1001.78
2018-08-27T06:48:36.520Z,1001.83
2018-08-27T06:49:57.484Z,1001.72
2018-08-27T06:50:36.507Z,1001.87
2018-08-27T06:51:36.513Z,1001.80
2018-08-27T06:52:36.658Z,1001.81
2018-08-27T06:53:36.496Z,1001.82
2018-08-27T06:54:36.542Z,1001.79
2018-08-27T06:55:57.543Z,1001.85
2018-08-27T06:56:36.460Z,1001.92
2018-08-27T06:57:36.465Z,1001.94
2018-08-27T06:58:36.447Z,1001.92
2018-08-27T06:59:36.444Z,1001.90
2018-08-27T07:00:36.457Z,1001.87
2018-08-27T07:01:57.442Z,1001.89
2018-08-27T07:02:36.438Z,1001.88
2018-08-27T07:03:36.365Z,1001.89
2018-08-27T07:04:36.428Z,1001.90
2018-08-27T07:05:37.102Z,1001.93
2018-08-27T07:06:36.397Z,1002.05
2018-08-27T07:07:57.409Z,1001.92
2018-08-27T07:08:36.411Z,1001.93
2018-08-27T07:09:36.444Z,1001.98
2018-08-27T07:10:36.417Z,1001.92
2018-08-27T07:11:36.396Z,1001.99
2018-08-27T07:12:36.354Z,1001.95
2018-08-27T07:13:57.407Z,1002.00
2018-08-27T07:14:36.365Z,1002.00
2018-08-27T07:15:37.288Z,1001.94
2018-08-27T07:16:36.419Z,1001.92
2018-08-27T07:17:36.337Z,1001.92
2018-08-27T07:18:36.329Z,1001.95
2018-08-27T07:19:57.321Z,1001.95
2018-08-27T07:20:36.321Z,1001.97
2018-08-27T07:21:36.319Z,1001.98
2018-08-27T07:22:36.307Z,1001.96
2018-08-27T07:23:36.295Z,1001.98
2018-08-27T07:24:36.306Z,1001.91
2018-08-27T07:25:57.300Z,1001.93
2018-08-27T07:26:36.255Z,1001.91
2018-08-27T07:27:36.400Z,1001.93
2018-08-27T07:28:36.335Z,1002.03
2018-08-27T07:29:36.266Z,1001.92
2018-08-27T07:30:36.247Z,1001.96
2018-08-27T07:31:57.253Z,1001.98
2018-08-27T07:32:36.246Z,1001.92
2018-08-27T07:33:36.239Z,1002.03
2018-08-27T07:34:36.234Z,1002.01
2018-08-27T07:35:36.316Z,1001.95
2018-08-27T07:36:36.279Z,1001.98
2018-08-27T07:37:57.211Z,1001.95
2018-08-27T07:38:36.220Z,1001.95
2018-08-27T07:39:36.235Z,1002.05
2018-08-27T07:40:36.206Z,1002.04
2018-08-27T07:41:36.151Z,1002.04
2018-08-27T07:42:36.204Z,1002.01
2018-08-27T07:43:57.888Z,1002.05
2018-08-27T07:44:36.184Z,1002.07
2018-08-27T07:45:36.184Z,1002.03
2018-08-27T07:46:36.168Z,1002.06
2018-08-27T07:47:36.167Z,1002.08
2018-08-27T07:48:36.174Z,1002.10
2018-08-27T07:49:57.158Z,1002.13
2018-08-27T07:50:36.191Z,1002.10
2018-08-27T07:51:36.139Z,1002.11
2018-08-27T07:52:36.148Z,1002.08
2018-08-27T07:53:36.081Z,1002.07
2018-08-27T07:54:36.128Z,1002.04
2018-08-27T07:55:57.119Z,1002.07
2018-08-27T07:56:36.134Z,1002.05
2018-08-27T07:57:36.104Z,1002.07
2018-08-27T07:58:36.156Z,1002.04
2018-08-27T07:59:36.109Z,1002.13
2018-08-27T08:00:36.080Z,1002.11
2018-08-27T08:01:57.086Z,1002.13
2018-08-27T08:02:36.072Z,1002.12
2018-08-27T08:03:36.056Z,1002.14
2018-08-27T08:04:36.080Z,1002.16
2018-08-27T08:05:36.038Z,1002.11
2018-08-27T08:06:36.076Z,1002.09
2018-08-27T08:07:57.025Z,1002.08
2018-08-27T08:08:36.034Z,1002.13
2018-08-27T08:09:36.022Z,1002.11
2018-08-27T08:10:36.088Z,1002.12
2018-08-27T08:11:36.025Z,1002.12
2018-08-27T08:12:36.057Z,1002.12
2018-08-27T08:13:57.041Z,1002.18
2018-08-27T08:14:36.057Z,1002.17
2018-08-27T08:15:36.015Z,1002.21
2018-08-27T08:16:35.996Z,1002.16
2018-08-27T08:17:36.017Z,1002.21
2018-08-27T08:18:35.972Z,1002.20
2018-08-27T08:19:56.985Z,1002.21
2018-08-27T08:20:36.385Z,1002.19
2018-08-27T08:21:35.969Z,1002.20
2018-08-27T08:22:36.504Z,1002.21
2018-08-27T08:23:35.902Z,1002.21
2018-08-27T08:24:35.956Z,1002.24
2018-08-27T08:25:56.958Z,1002.21
2018-08-27T08:26:35.941Z,1002.25
2018-08-27T08:27:37.359Z,1002.28
2018-08-27T08:28:35.945Z,1002.25
2018-08-27T08:29:36.041Z,1002.28
2018-08-27T08:30:35.946Z,1002.26
2018-08-27T08:31:56.908Z,1002.34
2018-08-27T08:32:35.912Z,1002.25
2018-08-27T08:33:35.961Z,1002.28
2018-08-27T08:34:36.590Z,1002.37
2018-08-27T08:35:35.913Z,1002.34
2018-08-27T08:36:35.890Z,1002.33
2018-08-27T08:37:59.492Z,1002.35
2018-08-27T08:38:35.889Z,1002.31
2018-08-27T08:39:35.880Z,1002.32
2018-08-27T08:40:35.873Z,1002.34
2018-08-27T08:41:35.864Z,1002.35
2018-08-27T08:42:35.866Z,1002.36
2018-08-27T08:43:57.559Z,1002.38
2018-08-27T08:44:35.823Z,1002.37
2018-08-27T08:45:35.839Z,1002.38
2018-08-27T08:46:35.915Z,1002.54
2018-08-27T08:47:35.844Z,1002.49
2018-08-27T08:48:35.843Z,1002.50
2018-08-27T08:49:56.824Z,1002.50
2018-08-27T08:50:37.574Z,1002.51
2018-08-27T08:51:36.760Z,1002.52
2018-08-27T08:52:35.782Z,1002.51
2018-08-27T08:53:35.838Z,1002.55
2018-08-27T08:54:35.798Z,1002.59
2018-08-27T08:55:56.819Z,1002.56
2018-08-27T08:56:35.816Z,1002.54
2018-08-27T08:57:35.802Z,1002.57
2018-08-27T08:58:35.814Z,1002.64
2018-08-27T08:59:35.773Z,1002.61
2018-08-27T09:00:35.762Z,1002.60
2018-08-27T09:01:56.794Z,1002.64
2018-08-27T09:02:35.811Z,1002.66
2018-08-27T09:03:35.762Z,1002.66
2018-08-27T09:04:35.757Z,1002.65
2018-08-27T09:05:36.725Z,1002.62
2018-08-27T09:06:35.736Z,1002.68
2018-08-27T09:07:56.748Z,1002.73
2018-08-27T09:08:35.823Z,1002.67
2018-08-27T09:09:35.710Z,1002.68
2018-08-27T09:10:35.727Z,1002.66
2018-08-27T09:11:35.742Z,1002.65
2018-08-27T09:12:35.663Z,1002.73
2018-08-27T09:13:56.712Z,1002.76
2018-08-27T09:14:35.714Z,1002.73
2018-08-27T09:15:35.724Z,1002.78
2018-08-27T09:16:35.728Z,1002.77
2018-08-27T09:17:35.768Z,1002.77
2018-08-27T09:18:35.724Z,1002.71
2018-08-27T09:19:56.771Z,1002.71
2018-08-27T09:20:35.650Z,1002.75
2018-08-27T09:21:35.685Z,1002.76
2018-08-27T09:22:35.681Z,1002.74
2018-08-27T09:23:35.731Z,1002.82
2018-08-27T09:24:35.658Z,1002.75
2018-08-27T09:25:56.669Z,1002.84
2018-08-27T09:26:35.624Z,1002.71
2018-08-27T09:27:35.645Z,1002.75
2018-08-27T09:28:35.664Z,1002.77
2018-08-27T09:29:35.640Z,1002.72
2018-08-27T09:30:35.635Z,1002.74
2018-08-27T09:31:56.631Z,1002.69
2018-08-27T09:32:35.689Z,1002.69
2018-08-27T09:33:35.652Z,1002.63
2018-08-27T09:34:35.613Z,1002.65
2018-08-27T09:35:35.615Z,1002.67
2018-08-27T09:36:35.620Z,1002.63
2018-08-27T09:37:56.608Z,1002.75
2018-08-27T09:38:35.612Z,1002.79
2018-08-27T09:39:36.504Z,1002.75
2018-08-27T09:40:35.549Z,1002.74
2018-08-27T09:41:35.618Z,1002.73
2018-08-27T09:42:35.573Z,1002.78
2018-08-27T09:43:56.568Z,1002.77
2018-08-27T09:44:35.574Z,1002.79
2018-08-27T09:45:35.545Z,1002.74
2018-08-27T09:46:35.568Z,1002.78
2018-08-27T09:47:35.565Z,1002.77
2018-08-27T09:48:35.553Z,1002.87
2018-08-27T09:49:56.544Z,1002.79
2018-08-27T09:50:35.522Z,1002.88
2018-08-27T09:51:35.692Z,1002.88
2018-08-27T09:52:35.562Z,1002.91
2018-08-27T09:53:35.529Z,1002.87
2018-08-27T09:54:36.074Z,1002.81
2018-08-27T09:55:56.494Z,1002.92
2018-08-27T09:56:35.517Z,1002.89
2018-08-27T09:57:35.541Z,1002.93
2018-08-27T09:58:35.500Z,1002.89
2018-08-27T09:59:35.505Z,1002.85
2018-08-27T10:00:35.499Z,1002.89
2018-08-27T10:01:57.944Z,1002.87
2018-08-27T10:02:36.229Z,1002.86
2018-08-27T10:03:35.461Z,1002.88
2018-08-27T10:04:35.486Z,1002.86
2018-08-27T10:05:35.478Z,1002.81
2018-08-27T10:06:35.471Z,1002.89
2018-08-27T10:07:56.495Z,1002.88
2018-08-27T10:08:36.095Z,1002.84
2018-08-27T10:09:35.471Z,1002.89
2018-08-27T10:10:35.470Z,1002.88
2018-08-27T10:11:35.493Z,1002.91
2018-08-27T10:12:35.455Z,1002.94
2018-08-27T10:13:56.466Z,1002.90
2018-08-27T10:14:37.002Z,1002.85
2018-08-27T10:15:35.453Z,1002.87
2018-08-27T10:16:37.127Z,1002.81
2018-08-27T10:17:35.923Z,1002.89
2018-08-27T10:18:35.403Z,1002.92
2018-08-27T10:19:56.463Z,1002.91
2018-08-27T10:20:35.412Z,1002.91
2018-08-27T10:21:35.413Z,1002.89
2018-08-27T10:22:35.455Z,1002.90
2018-08-27T10:23:35.384Z,1002.94
2018-08-27T10:24:35.395Z,1002.90
2018-08-27T10:25:56.421Z,1002.88
2018-08-27T10:26:36.346Z,1002.93
2018-08-27T10:27:35.416Z,1002.94
2018-08-27T10:28:35.385Z,1002.94
2018-08-27T10:29:35.400Z,1002.94
2018-08-27T10:30:36.305Z,1002.98
2018-08-27T10:31:56.401Z,1002.92
2018-08-27T10:32:35.376Z,1003.03
2018-08-27T10:33:35.363Z,1002.93
2018-08-27T10:34:35.352Z,1002.89
2018-08-27T10:35:35.355Z,1002.97
2018-08-27T10:36:37.177Z,1002.93
2018-08-27T10:37:57.045Z,1003.03
2018-08-27T10:38:35.359Z,1002.96
2018-08-27T10:39:35.356Z,1002.99
2018-08-27T10:40:35.335Z,1002.95
2018-08-27T10:41:35.335Z,1002.96
2018-08-27T10:42:35.323Z,1002.97
2018-08-27T10:43:56.341Z,1002.89
2018-08-27T10:44:35.298Z,1002.91
2018-08-27T10:45:35.300Z,1002.93
2018-08-27T10:46:35.338Z,1002.95
2018-08-27T10:47:35.315Z,1002.95
2018-08-27T10:48:35.373Z,1002.94
2018-08-27T10:49:56.303Z,1002.93
2018-08-27T10:50:35.346Z,1002.97
2018-08-27T10:51:35.295Z,1003.04
2018-08-27T10:52:35.290Z,1002.95
2018-08-27T10:53:35.310Z,1003.04
2018-08-27T10:54:35.283Z,1003.04
2018-08-27T10:55:56.293Z,1003.01
2018-08-27T10:56:35.449Z,1003.05
2018-08-27T10:57:35.317Z,1003.09
2018-08-27T10:58:35.267Z,1003.01
2018-08-27T10:59:35.225Z,1003.07
2018-08-27T11:00:35.237Z,1003.12
2018-08-27T11:01:56.261Z,1003.09
2018-08-27T11:02:35.268Z,1003.03
2018-08-27T11:03:35.263Z,1003.08
2018-08-27T11:04:35.306Z,1003.07
2018-08-27T11:05:35.266Z,1003.00
2018-08-27T11:06:35.818Z,1002.99
2018-08-27T11:07:56.255Z,1003.08
2018-08-27T11:08:35.259Z,1003.03
2018-08-27T11:09:35.240Z,1003.05
2018-08-27T11:10:35.286Z,1003.08
2018-08-27T11:11:35.257Z,1003.09
2018-08-27T11:12:36.046Z,1003.09
2018-08-27T11:13:56.168Z,1003.04
2018-08-27T11:14:35.224Z,1003.11
2018-08-27T11:15:35.214Z,1003.14
2018-08-27T11:16:35.222Z,1003.09
2018-08-27T11:17:35.208Z,1003.05
2018-08-27T11:18:35.244Z,1003.08
2018-08-27T11:19:56.339Z,1003.08
2018-08-27T11:20:35.360Z,1003.14
2018-08-27T11:21:35.224Z,1003.12
2018-08-27T11:22:35.211Z,1003.07
2018-08-27T11:23:35.205Z,1003.08
2018-08-27T11:24:35.183Z,1003.06
2018-08-27T11:25:56.201Z,1003.06
2018-08-27T11:26:35.321Z,1003.05
2018-08-27T11:27:35.199Z,1003.04
2018-08-27T11:28:35.151Z,1003.08
2018-08-27T11:29:35.206Z,1003.07
2018-08-27T11:30:35.181Z,1003.14
2018-08-27T11:31:56.246Z,1003.14
2018-08-27T11:32:35.172Z,1003.19
2018-08-27T11:33:35.213Z,1003.17
2018-08-27T11:34:35.087Z,1003.15
2018-08-27T11:35:35.113Z,1003.16
2018-08-27T11:36:36.983Z,1003.13
2018-08-27T11:37:56.146Z,1003.15
2018-08-27T11:38:35.171Z,1003.11
2018-08-27T11:39:35.177Z,1003.06
2018-08-27T11:40:35.148Z,1003.08
2018-08-27T11:41:35.192Z,1003.12
2018-08-27T11:42:35.226Z,1003.13
2018-08-27T11:43:56.182Z,1003.14
2018-08-27T11:44:35.168Z,1003.08
2018-08-27T11:45:35.151Z,1003.08
2018-08-27T11:46:35.181Z,1003.05
2018-08-27T11:47:35.153Z,1003.01
2018-08-27T11:48:35.116Z,1002.96
2018-08-27T11:49:56.133Z,1003.08
2018-08-27T11:50:35.197Z,1003.02
2018-08-27T11:51:35.155Z,1002.94
2018-08-27T11:52:35.160Z,1003.08
2018-08-27T11:53:35.151Z,1003.10
2018-08-27T11:54:35.179Z,1003.02
2018-08-27T11:55:56.182Z,1002.98
2018-08-27T11:56:35.702Z,1003.04
2018-08-27T11:57:35.137Z,1003.20
2018-08-27T11:58:35.190Z,1003.13
2018-08-27T11:59:35.142Z,1003.08
2018-08-27T12:00:35.146Z,1003.19
2018-08-27T12:01:56.180Z,1003.27
2018-08-27T12:02:35.158Z,1003.28
2018-08-27T12:03:35.110Z,1003.24
2018-08-27T12:04:35.143Z,1003.23
2018-08-27T12:05:35.123Z,1003.28